sensor_id;sensor_type;location;lat;lon;timestamp;temperature;humidity
58638;DHT22;54976;51.510;7.522;2023-07-31T00:00:35;16.70;99.90
58638;DHT22;54976;51.510;7.522;2023-07-31T00:03:35;16.70;99.90
58638;DHT22;54976;51.510;7.522;2023-07-31T00:06:36;16.70;99.90
58638;DHT22;54976;51.510;7.522;2023-07-31T00:09:36;16.80;99.90
58638;DHT22;54976;51.510;7.522;2023-07-31T00:12:38;16.70;99.90
58638;DHT22;54976;51.510;7.522;2023-07-31T00:15:38;16.70;99.90
58638;DHT22;54976;51.510;7.522;2023-07-31T00:18:39;16.70;99.90
58638;DHT22;54976;51.510;7.522;2023-07-31T00:21:39;16.80;99.90
58638;DHT22;54976;51.510;7.522;2023-07-31T00:24:40;16.80;99.90
58638;DHT22;54976;51.510;7.522;2023-07-31T00:27:40;16.70;99.90
58638;DHT22;54976;51.510;7.522;2023-07-31T00:30:44;16.70;99.90
58638;DHT22;54976;51.510;7.522;2023-07-31T00:33:45;16.80;99.90
58638;DHT22;54976;51.510;7.522;2023-07-31T00:36:45;16.70;99.90
58638;DHT22;54976;51.510;7.522;2023-07-31T00:39:45;16.80;99.90
58638;DHT22;54976;51.510;7.522;2023-07-31T00:42:46;16.80;99.90
58638;DHT22;54976;51.510;7.522;2023-07-31T00:45:46;16.80;99.90
58638;DHT22;54976;51.510;7.522;2023-07-31T00:48:47;16.80;99.90
58638;DHT22;54976;51.510;7.522;2023-07-31T00:51:48;16.70;99.90
58638;DHT22;54976;51.510;7.522;2023-07-31T00:54:49;16.70;99.90
58638;DHT22;54976;51.510;7.522;2023-07-31T00:57:50;16.70;99.90
58638;DHT22;54976;51.510;7.522;2023-07-31T01:00:52;16.70;99.90
58638;DHT22;54976;51.510;7.522;2023-07-31T01:03:53;16.70;99.90
58638;DHT22;54976;51.510;7.522;2023-07-31T01:07:11;16.70;99.90
58638;DHT22;54976;51.510;7.522;2023-07-31T01:10:16;16.70;99.90
58638;DHT22;54976;51.510;7.522;2023-07-31T01:13:17;16.70;99.90
58638;DHT22;54976;51.510;7.522;2023-07-31T01:16:18;16.80;99.90
58638;DHT22;54976;51.510;7.522;2023-07-31T01:19:20;16.80;99.90
58638;DHT22;54976;51.510;7.522;2023-07-31T01:31:41;16.80;99.90
58638;DHT22;54976;51.510;7.522;2023-07-31T01:34:46;16.80;99.90
58638;DHT22;54976;51.510;7.522;2023-07-31T01:37:47;16.80;99.90
58638;DHT22;54976;51.510;7.522;2023-07-31T01:40:51;16.70;99.90
58638;DHT22;54976;51.510;7.522;2023-07-31T01:43:51;16.70;99.90
58638;DHT22;54976;51.510;7.522;2023-07-31T01:46:52;16.80;99.90
58638;DHT22;54976;51.510;7.522;2023-07-31T01:49:52;16.70;99.90
58638;DHT22;54976;51.510;7.522;2023-07-31T01:52:53;16.80;99.90
58638;DHT22;54976;51.510;7.522;2023-07-31T01:55:53;16.70;99.90
58638;DHT22;54976;51.510;7.522;2023-07-31T01:58:54;16.70;99.90
58638;DHT22;54976;51.510;7.522;2023-07-31T02:01:54;16.80;99.90
58638;DHT22;54976;51.510;7.522;2023-07-31T02:04:55;16.70;99.90
58638;DHT22;54976;51.510;7.522;2023-07-31T02:07:55;16.80;99.90
58638;DHT22;54976;51.510;7.522;2023-07-31T02:10:55;16.70;99.90
58638;DHT22;54976;51.510;7.522;2023-07-31T02:13:56;16.70;99.90
58638;DHT22;54976;51.510;7.522;2023-07-31T02:16:56;16.70;99.90
58638;DHT22;54976;51.510;7.522;2023-07-31T02:19:57;16.70;99.90
58638;DHT22;54976;51.510;7.522;2023-07-31T02:22:57;16.70;99.90
58638;DHT22;54976;51.510;7.522;2023-07-31T02:25:58;16.70;99.90
58638;DHT22;54976;51.510;7.522;2023-07-31T02:28:58;16.80;99.90
58638;DHT22;54976;51.510;7.522;2023-07-31T02:31:59;16.70;99.90
58638;DHT22;54976;51.510;7.522;2023-07-31T02:34:59;16.70;99.90
58638;DHT22;54976;51.510;7.522;2023-07-31T02:38:00;16.70;99.90
58638;DHT22;54976;51.510;7.522;2023-07-31T02:41:00;16.70;99.90
58638;DHT22;54976;51.510;7.522;2023-07-31T02:44:01;16.70;99.90
58638;DHT22;54976;51.510;7.522;2023-07-31T02:47:01;16.70;99.90
58638;DHT22;54976;51.510;7.522;2023-07-31T02:50:03;16.70;99.90
58638;DHT22;54976;51.510;7.522;2023-07-31T02:53:04;16.70;99.90
58638;DHT22;54976;51.510;7.522;2023-07-31T02:56:04;16.70;99.90
58638;DHT22;54976;51.510;7.522;2023-07-31T02:59:05;16.70;99.90
58638;DHT22;54976;51.510;7.522;2023-07-31T03:02:05;16.70;99.90
58638;DHT22;54976;51.510;7.522;2023-07-31T03:05:06;16.70;99.90
58638;DHT22;54976;51.510;7.522;2023-07-31T03:08:06;16.70;99.90
58638;DHT22;54976;51.510;7.522;2023-07-31T03:11:07;16.80;99.90
58638;DHT22;54976;51.510;7.522;2023-07-31T03:14:07;16.80;99.90
58638;DHT22;54976;51.510;7.522;2023-07-31T03:17:08;16.70;99.90
58638;DHT22;54976;51.510;7.522;2023-07-31T03:20:08;16.70;99.90
58638;DHT22;54976;51.510;7.522;2023-07-31T03:23:09;16.70;99.90
58638;DHT22;54976;51.510;7.522;2023-07-31T03:26:10;16.70;99.90
58638;DHT22;54976;51.510;7.522;2023-07-31T03:29:10;16.90;99.90
58638;DHT22;54976;51.510;7.522;2023-07-31T03:32:11;16.80;99.90
58638;DHT22;54976;51.510;7.522;2023-07-31T03:35:11;16.80;99.90
58638;DHT22;54976;51.510;7.522;2023-07-31T03:38:12;16.80;99.90
58638;DHT22;54976;51.510;7.522;2023-07-31T03:41:13;16.80;99.90
58638;DHT22;54976;51.510;7.522;2023-07-31T03:44:13;16.90;99.90
58638;DHT22;54976;51.510;7.522;2023-07-31T03:47:14;16.80;99.90
58638;DHT22;54976;51.510;7.522;2023-07-31T03:50:14;16.90;99.90
58638;DHT22;54976;51.510;7.522;2023-07-31T03:53:15;16.90;99.90
58638;DHT22;54976;51.510;7.522;2023-07-31T03:56:15;17.00;99.90
58638;DHT22;54976;51.510;7.522;2023-07-31T03:59:16;16.90;99.90
58638;DHT22;54976;51.510;7.522;2023-07-31T04:02:17;16.90;99.90
58638;DHT22;54976;51.510;7.522;2023-07-31T04:05:19;17.00;99.90
58638;DHT22;54976;51.510;7.522;2023-07-31T04:08:19;17.00;99.90
58638;DHT22;54976;51.510;7.522;2023-07-31T04:11:20;17.00;99.90
58638;DHT22;54976;51.510;7.522;2023-07-31T04:14:20;17.10;99.90
58638;DHT22;54976;51.510;7.522;2023-07-31T04:17:21;17.10;99.90
58638;DHT22;54976;51.510;7.522;2023-07-31T04:20:22;17.10;99.90
58638;DHT22;54976;51.510;7.522;2023-07-31T04:23:22;17.10;99.90
58638;DHT22;54976;51.510;7.522;2023-07-31T04:26:23;17.20;99.90
58638;DHT22;54976;51.510;7.522;2023-07-31T04:29:23;17.20;99.90
58638;DHT22;54976;51.510;7.522;2023-07-31T04:32:24;17.30;99.90
58638;DHT22;54976;51.510;7.522;2023-07-31T04:35:24;17.30;99.90
58638;DHT22;54976;51.510;7.522;2023-07-31T04:38:25;17.30;99.90
58638;DHT22;54976;51.510;7.522;2023-07-31T04:41:25;17.40;99.90
58638;DHT22;54976;51.510;7.522;2023-07-31T04:44:26;17.40;99.90
58638;DHT22;54976;51.510;7.522;2023-07-31T04:47:26;17.40;99.90
58638;DHT22;54976;51.510;7.522;2023-07-31T04:50:27;17.50;99.90
58638;DHT22;54976;51.510;7.522;2023-07-31T04:53:27;17.50;99.90
58638;DHT22;54976;51.510;7.522;2023-07-31T04:56:28;17.50;99.90
58638;DHT22;54976;51.510;7.522;2023-07-31T04:59:29;17.50;99.90
58638;DHT22;54976;51.510;7.522;2023-07-31T05:02:29;17.60;99.90
58638;DHT22;54976;51.510;7.522;2023-07-31T05:05:30;17.60;99.90
58638;DHT22;54976;51.510;7.522;2023-07-31T05:08:30;17.70;99.90
58638;DHT22;54976;51.510;7.522;2023-07-31T05:11:31;17.60;99.90
58638;DHT22;54976;51.510;7.522;2023-07-31T05:14:31;17.60;99.90
58638;DHT22;54976;51.510;7.522;2023-07-31T05:17:32;17.60;99.90
58638;DHT22;54976;51.510;7.522;2023-07-31T05:20:32;17.50;99.90
58638;DHT22;54976;51.510;7.522;2023-07-31T05:23:33;17.50;99.90
58638;DHT22;54976;51.510;7.522;2023-07-31T05:26:33;17.50;99.90
58638;DHT22;54976;51.510;7.522;2023-07-31T05:29:34;17.50;99.90
58638;DHT22;54976;51.510;7.522;2023-07-31T05:32:34;17.50;99.90
58638;DHT22;54976;51.510;7.522;2023-07-31T05:35:35;17.50;99.90
58638;DHT22;54976;51.510;7.522;2023-07-31T05:38:35;17.60;99.90
58638;DHT22;54976;51.510;7.522;2023-07-31T05:41:36;17.60;99.90
58638;DHT22;54976;51.510;7.522;2023-07-31T05:44:36;17.70;99.90
58638;DHT22;54976;51.510;7.522;2023-07-31T05:47:37;17.70;99.90
58638;DHT22;54976;51.510;7.522;2023-07-31T05:50:37;17.70;99.90
58638;DHT22;54976;51.510;7.522;2023-07-31T05:53:41;17.80;99.90
58638;DHT22;54976;51.510;7.522;2023-07-31T05:56:42;17.80;99.90
58638;DHT22;54976;51.510;7.522;2023-07-31T05:59:42;17.80;99.90
58638;DHT22;54976;51.510;7.522;2023-07-31T06:02:43;17.80;99.90
58638;DHT22;54976;51.510;7.522;2023-07-31T06:05:43;17.80;99.90
58638;DHT22;54976;51.510;7.522;2023-07-31T06:08:44;17.90;99.90
58638;DHT22;54976;51.510;7.522;2023-07-31T06:11:44;17.80;99.90
58638;DHT22;54976;51.510;7.522;2023-07-31T06:14:44;17.80;99.90
58638;DHT22;54976;51.510;7.522;2023-07-31T06:17:45;17.80;99.90
58638;DHT22;54976;51.510;7.522;2023-07-31T06:20:45;17.70;99.90
58638;DHT22;54976;51.510;7.522;2023-07-31T06:23:47;17.70;99.90
58638;DHT22;54976;51.510;7.522;2023-07-31T06:26:48;17.70;99.90
58638;DHT22;54976;51.510;7.522;2023-07-31T06:29:48;17.70;99.90
58638;DHT22;54976;51.510;7.522;2023-07-31T06:32:49;17.70;99.90
58638;DHT22;54976;51.510;7.522;2023-07-31T06:35:49;17.70;99.90
58638;DHT22;54976;51.510;7.522;2023-07-31T06:38:50;17.70;99.90
58638;DHT22;54976;51.510;7.522;2023-07-31T06:41:50;17.80;99.90
58638;DHT22;54976;51.510;7.522;2023-07-31T06:44:51;17.80;99.90
58638;DHT22;54976;51.510;7.522;2023-07-31T06:47:51;17.90;99.90
58638;DHT22;54976;51.510;7.522;2023-07-31T06:50:52;17.90;99.90
58638;DHT22;54976;51.510;7.522;2023-07-31T06:53:52;18.00;99.90
58638;DHT22;54976;51.510;7.522;2023-07-31T06:56:53;18.00;99.90
58638;DHT22;54976;51.510;7.522;2023-07-31T06:59:53;18.00;99.90
58638;DHT22;54976;51.510;7.522;2023-07-31T07:02:54;18.10;99.90
58638;DHT22;54976;51.510;7.522;2023-07-31T07:05:54;18.20;99.90
58638;DHT22;54976;51.510;7.522;2023-07-31T07:08:55;18.20;99.90
58638;DHT22;54976;51.510;7.522;2023-07-31T07:11:55;18.20;99.90
58638;DHT22;54976;51.510;7.522;2023-07-31T07:14:56;18.20;99.90
58638;DHT22;54976;51.510;7.522;2023-07-31T07:17:57;18.20;99.90
58638;DHT22;54976;51.510;7.522;2023-07-31T07:20:58;18.20;99.90
58638;DHT22;54976;51.510;7.522;2023-07-31T07:23:58;18.10;99.90
58638;DHT22;54976;51.510;7.522;2023-07-31T07:26:59;18.10;99.90
58638;DHT22;54976;51.510;7.522;2023-07-31T07:30:00;18.10;99.90
58638;DHT22;54976;51.510;7.522;2023-07-31T07:33:00;18.10;99.90
58638;DHT22;54976;51.510;7.522;2023-07-31T07:36:01;18.10;99.90
58638;DHT22;54976;51.510;7.522;2023-07-31T07:39:02;18.10;99.90
58638;DHT22;54976;51.510;7.522;2023-07-31T07:42:02;18.00;99.90
58638;DHT22;54976;51.510;7.522;2023-07-31T07:45:03;18.00;99.90
58638;DHT22;54976;51.510;7.522;2023-07-31T07:48:04;18.10;99.90
58638;DHT22;54976;51.510;7.522;2023-07-31T07:51:05;18.00;99.90
58638;DHT22;54976;51.510;7.522;2023-07-31T07:54:05;18.10;99.90
58638;DHT22;54976;51.510;7.522;2023-07-31T07:57:06;18.10;99.90
58638;DHT22;54976;51.510;7.522;2023-07-31T08:00:07;18.10;99.90
58638;DHT22;54976;51.510;7.522;2023-07-31T08:03:07;18.10;99.90
58638;DHT22;54976;51.510;7.522;2023-07-31T08:06:08;18.10;99.90
58638;DHT22;54976;51.510;7.522;2023-07-31T08:09:11;18.20;99.90
58638;DHT22;54976;51.510;7.522;2023-07-31T08:12:12;18.20;99.90
58638;DHT22;54976;51.510;7.522;2023-07-31T08:15:12;18.20;99.90
58638;DHT22;54976;51.510;7.522;2023-07-31T08:18:13;18.20;99.90
58638;DHT22;54976;51.510;7.522;2023-07-31T08:21:14;18.30;99.90
58638;DHT22;54976;51.510;7.522;2023-07-31T08:24:15;18.40;99.90
58638;DHT22;54976;51.510;7.522;2023-07-31T08:27:15;18.30;99.90
58638;DHT22;54976;51.510;7.522;2023-07-31T08:30:16;18.30;99.90
58638;DHT22;54976;51.510;7.522;2023-07-31T08:33:16;18.20;99.90
58638;DHT22;54976;51.510;7.522;2023-07-31T08:36:17;18.10;99.90
58638;DHT22;54976;51.510;7.522;2023-07-31T08:39:17;18.00;99.90
58638;DHT22;54976;51.510;7.522;2023-07-31T08:42:18;18.00;99.90
58638;DHT22;54976;51.510;7.522;2023-07-31T08:45:18;18.00;99.90
58638;DHT22;54976;51.510;7.522;2023-07-31T08:48:20;18.10;99.90
58638;DHT22;54976;51.510;7.522;2023-07-31T08:51:21;18.30;99.90
58638;DHT22;54976;51.510;7.522;2023-07-31T08:54:21;18.50;99.90
58638;DHT22;54976;51.510;7.522;2023-07-31T08:57:22;18.50;99.90
58638;DHT22;54976;51.510;7.522;2023-07-31T09:00:24;18.50;99.90
58638;DHT22;54976;51.510;7.522;2023-07-31T09:03:26;18.50;99.90
58638;DHT22;54976;51.510;7.522;2023-07-31T09:06:27;18.50;99.90
58638;DHT22;54976;51.510;7.522;2023-07-31T09:09:28;18.60;99.90
58638;DHT22;54976;51.510;7.522;2023-07-31T09:12:29;18.50;99.90
58638;DHT22;54976;51.510;7.522;2023-07-31T09:15:30;18.40;99.90
58638;DHT22;54976;51.510;7.522;2023-07-31T09:18:30;18.30;99.90
58638;DHT22;54976;51.510;7.522;2023-07-31T09:21:31;18.20;99.90
58638;DHT22;54976;51.510;7.522;2023-07-31T09:24:32;18.20;99.90
58638;DHT22;54976;51.510;7.522;2023-07-31T09:27:45;18.20;99.90
58638;DHT22;54976;51.510;7.522;2023-07-31T09:30:49;18.20;99.90
58638;DHT22;54976;51.510;7.522;2023-07-31T09:33:56;18.20;99.90
58638;DHT22;54976;51.510;7.522;2023-07-31T09:36:57;18.30;99.90
58638;DHT22;54976;51.510;7.522;2023-07-31T09:39:58;18.20;99.90
58638;DHT22;54976;51.510;7.522;2023-07-31T09:43:08;18.20;99.90
58638;DHT22;54976;51.510;7.522;2023-07-31T09:46:13;18.30;99.90
58638;DHT22;54976;51.510;7.522;2023-07-31T09:49:14;18.40;99.90
58638;DHT22;54976;51.510;7.522;2023-07-31T09:52:14;18.50;99.90
58638;DHT22;54976;51.510;7.522;2023-07-31T09:55:15;18.50;99.90
58638;DHT22;54976;51.510;7.522;2023-07-31T09:58:16;18.40;99.90
58638;DHT22;54976;51.510;7.522;2023-07-31T10:01:16;18.40;99.90
58638;DHT22;54976;51.510;7.522;2023-07-31T10:04:17;18.50;99.90
58638;DHT22;54976;51.510;7.522;2023-07-31T10:07:19;18.50;99.90
58638;DHT22;54976;51.510;7.522;2023-07-31T10:10:23;18.60;99.90
58638;DHT22;54976;51.510;7.522;2023-07-31T10:13:25;18.80;99.90
58638;DHT22;54976;51.510;7.522;2023-07-31T10:16:27;18.80;99.90
58638;DHT22;54976;51.510;7.522;2023-07-31T10:19:29;18.70;99.90
58638;DHT22;54976;51.510;7.522;2023-07-31T10:22:30;18.70;99.90
58638;DHT22;54976;51.510;7.522;2023-07-31T10:25:31;18.70;99.90
58638;DHT22;54976;51.510;7.522;2023-07-31T10:28:32;18.80;99.90
58638;DHT22;54976;51.510;7.522;2023-07-31T10:31:32;18.80;99.90
58638;DHT22;54976;51.510;7.522;2023-07-31T10:34:34;19.00;99.90
58638;DHT22;54976;51.510;7.522;2023-07-31T10:37:36;19.00;99.90
58638;DHT22;54976;51.510;7.522;2023-07-31T10:40:37;18.90;99.90
58638;DHT22;54976;51.510;7.522;2023-07-31T10:43:38;18.90;99.90
58638;DHT22;54976;51.510;7.522;2023-07-31T10:46:39;18.80;99.90
58638;DHT22;54976;51.510;7.522;2023-07-31T10:49:39;18.80;99.90
58638;DHT22;54976;51.510;7.522;2023-07-31T10:52:39;18.70;99.90
58638;DHT22;54976;51.510;7.522;2023-07-31T10:55:40;18.70;99.90
58638;DHT22;54976;51.510;7.522;2023-07-31T10:58:43;18.70;99.90
58638;DHT22;54976;51.510;7.522;2023-07-31T11:01:49;18.70;99.90
58638;DHT22;54976;51.510;7.522;2023-07-31T11:05:05;18.60;99.90
58638;DHT22;54976;51.510;7.522;2023-07-31T11:11:16;18.50;99.90
58638;DHT22;54976;51.510;7.522;2023-07-31T11:14:17;18.50;99.90
58638;DHT22;54976;51.510;7.522;2023-07-31T11:17:17;18.50;99.90
58638;DHT22;54976;51.510;7.522;2023-07-31T11:20:18;18.70;99.90
58638;DHT22;54976;51.510;7.522;2023-07-31T11:23:19;18.60;99.90
58638;DHT22;54976;51.510;7.522;2023-07-31T11:26:19;18.60;99.90
58638;DHT22;54976;51.510;7.522;2023-07-31T11:29:20;18.50;99.90
58638;DHT22;54976;51.510;7.522;2023-07-31T11:32:21;18.30;99.90
58638;DHT22;54976;51.510;7.522;2023-07-31T11:35:23;18.40;99.90
58638;DHT22;54976;51.510;7.522;2023-07-31T11:41:28;18.30;99.90
58638;DHT22;54976;51.510;7.522;2023-07-31T11:44:37;18.30;99.90
58638;DHT22;54976;51.510;7.522;2023-07-31T11:47:37;18.40;99.90
58638;DHT22;54976;51.510;7.522;2023-07-31T11:50:38;18.40;99.90
58638;DHT22;54976;51.510;7.522;2023-07-31T11:53:45;18.50;99.90
58638;DHT22;54976;51.510;7.522;2023-07-31T11:56:47;18.50;99.90
58638;DHT22;54976;51.510;7.522;2023-07-31T11:59:49;18.50;99.90
58638;DHT22;54976;51.510;7.522;2023-07-31T12:02:50;18.50;99.90
58638;DHT22;54976;51.510;7.522;2023-07-31T12:05:52;18.50;99.90
58638;DHT22;54976;51.510;7.522;2023-07-31T12:08:53;18.50;99.90
58638;DHT22;54976;51.510;7.522;2023-07-31T12:12:00;18.60;99.90
58638;DHT22;54976;51.510;7.522;2023-07-31T12:15:01;18.70;99.90
58638;DHT22;54976;51.510;7.522;2023-07-31T12:18:20;18.80;99.90
58638;DHT22;54976;51.510;7.522;2023-07-31T12:21:20;18.90;99.90
58638;DHT22;54976;51.510;7.522;2023-07-31T12:24:21;19.00;99.90
58638;DHT22;54976;51.510;7.522;2023-07-31T12:27:21;19.20;99.90
58638;DHT22;54976;51.510;7.522;2023-07-31T12:30:34;19.40;99.90
58638;DHT22;54976;51.510;7.522;2023-07-31T12:33:35;19.50;99.90
58638;DHT22;54976;51.510;7.522;2023-07-31T12:36:36;19.50;99.90
58638;DHT22;54976;51.510;7.522;2023-07-31T12:39:37;19.50;99.90
58638;DHT22;54976;51.510;7.522;2023-07-31T12:42:37;19.60;99.90
58638;DHT22;54976;51.510;7.522;2023-07-31T12:45:41;19.60;99.90
58638;DHT22;54976;51.510;7.522;2023-07-31T12:48:41;19.50;99.90
58638;DHT22;54976;51.510;7.522;2023-07-31T12:51:42;19.40;99.90
58638;DHT22;54976;51.510;7.522;2023-07-31T12:54:42;19.20;99.90
58638;DHT22;54976;51.510;7.522;2023-07-31T12:57:43;19.20;99.90
58638;DHT22;54976;51.510;7.522;2023-07-31T13:00:43;19.10;99.90
58638;DHT22;54976;51.510;7.522;2023-07-31T13:03:44;19.00;99.90
58638;DHT22;54976;51.510;7.522;2023-07-31T13:06:44;18.80;99.90
58638;DHT22;54976;51.510;7.522;2023-07-31T13:09:45;18.80;99.90
58638;DHT22;54976;51.510;7.522;2023-07-31T13:12:46;18.80;99.90
58638;DHT22;54976;51.510;7.522;2023-07-31T13:15:46;18.80;99.90
58638;DHT22;54976;51.510;7.522;2023-07-31T13:18:47;18.90;99.90
58638;DHT22;54976;51.510;7.522;2023-07-31T13:21:47;18.90;99.90
58638;DHT22;54976;51.510;7.522;2023-07-31T13:24:48;18.90;99.90
58638;DHT22;54976;51.510;7.522;2023-07-31T13:27:48;19.00;99.90
58638;DHT22;54976;51.510;7.522;2023-07-31T13:30:49;19.20;99.90
58638;DHT22;54976;51.510;7.522;2023-07-31T13:33:49;19.20;99.90
58638;DHT22;54976;51.510;7.522;2023-07-31T13:36:50;19.30;99.90
58638;DHT22;54976;51.510;7.522;2023-07-31T13:39:50;19.30;99.90
58638;DHT22;54976;51.510;7.522;2023-07-31T13:42:51;19.30;99.90
58638;DHT22;54976;51.510;7.522;2023-07-31T13:45:51;19.10;99.90
58638;DHT22;54976;51.510;7.522;2023-07-31T13:48:52;19.00;99.90
58638;DHT22;54976;51.510;7.522;2023-07-31T13:51:55;19.00;99.90
58638;DHT22;54976;51.510;7.522;2023-07-31T13:54:56;19.10;99.90
58638;DHT22;54976;51.510;7.522;2023-07-31T13:57:57;19.20;99.90
58638;DHT22;54976;51.510;7.522;2023-07-31T14:00:57;19.30;99.90
58638;DHT22;54976;51.510;7.522;2023-07-31T14:03:58;19.40;99.90
58638;DHT22;54976;51.510;7.522;2023-07-31T14:06:58;19.40;99.90
58638;DHT22;54976;51.510;7.522;2023-07-31T14:09:59;19.40;99.90
58638;DHT22;54976;51.510;7.522;2023-07-31T14:12:59;19.30;99.90
58638;DHT22;54976;51.510;7.522;2023-07-31T14:16:00;19.30;99.90
58638;DHT22;54976;51.510;7.522;2023-07-31T14:19:00;19.30;99.90
58638;DHT22;54976;51.510;7.522;2023-07-31T14:22:01;19.30;99.90
58638;DHT22;54976;51.510;7.522;2023-07-31T14:25:01;19.30;99.90
58638;DHT22;54976;51.510;7.522;2023-07-31T14:28:02;19.40;99.90
58638;DHT22;54976;51.510;7.522;2023-07-31T14:31:02;19.60;99.90
58638;DHT22;54976;51.510;7.522;2023-07-31T14:34:03;19.90;99.90
58638;DHT22;54976;51.510;7.522;2023-07-31T14:37:03;20.20;99.90
58638;DHT22;54976;51.510;7.522;2023-07-31T14:40:04;20.40;99.90
58638;DHT22;54976;51.510;7.522;2023-07-31T14:43:05;20.50;99.90
58638;DHT22;54976;51.510;7.522;2023-07-31T14:46:06;20.60;99.90
58638;DHT22;54976;51.510;7.522;2023-07-31T14:49:06;20.50;99.90
58638;DHT22;54976;51.510;7.522;2023-07-31T14:52:07;20.60;99.90
58638;DHT22;54976;51.510;7.522;2023-07-31T14:55:07;20.70;99.90
58638;DHT22;54976;51.510;7.522;2023-07-31T14:58:09;20.70;99.90
58638;DHT22;54976;51.510;7.522;2023-07-31T15:01:11;20.70;99.90
58638;DHT22;54976;51.510;7.522;2023-07-31T15:04:11;20.60;99.90
58638;DHT22;54976;51.510;7.522;2023-07-31T15:07:12;20.50;99.90
58638;DHT22;54976;51.510;7.522;2023-07-31T15:10:14;20.30;99.90
58638;DHT22;54976;51.510;7.522;2023-07-31T15:13:14;20.20;99.90
58638;DHT22;54976;51.510;7.522;2023-07-31T15:16:16;20.20;99.90
58638;DHT22;54976;51.510;7.522;2023-07-31T15:19:16;20.10;99.90
58638;DHT22;54976;51.510;7.522;2023-07-31T15:22:17;20.00;99.90
58638;DHT22;54976;51.510;7.522;2023-07-31T15:25:17;20.00;99.90
58638;DHT22;54976;51.510;7.522;2023-07-31T15:28:18;20.00;99.90
58638;DHT22;54976;51.510;7.522;2023-07-31T15:31:18;20.10;99.90
58638;DHT22;54976;51.510;7.522;2023-07-31T15:34:19;20.10;99.90
58638;DHT22;54976;51.510;7.522;2023-07-31T15:37:20;20.20;99.90
58638;DHT22;54976;51.510;7.522;2023-07-31T15:40:21;20.30;99.90
58638;DHT22;54976;51.510;7.522;2023-07-31T15:43:21;20.40;99.60
58638;DHT22;54976;51.510;7.522;2023-07-31T15:46:22;20.40;99.90
58638;DHT22;54976;51.510;7.522;2023-07-31T15:49:22;20.40;99.60
58638;DHT22;54976;51.510;7.522;2023-07-31T15:52:23;20.40;99.80
58638;DHT22;54976;51.510;7.522;2023-07-31T15:55:23;20.40;99.90
58638;DHT22;54976;51.510;7.522;2023-07-31T15:58:25;20.30;99.90
58638;DHT22;54976;51.510;7.522;2023-07-31T16:01:25;20.20;99.90
58638;DHT22;54976;51.510;7.522;2023-07-31T16:04:26;20.20;99.90
58638;DHT22;54976;51.510;7.522;2023-07-31T16:07:26;20.20;99.90
58638;DHT22;54976;51.510;7.522;2023-07-31T16:10:28;20.20;99.90
58638;DHT22;54976;51.510;7.522;2023-07-31T16:13:28;20.10;99.90
58638;DHT22;54976;51.510;7.522;2023-07-31T16:16:28;20.10;99.90
58638;DHT22;54976;51.510;7.522;2023-07-31T16:19:29;20.10;99.90
58638;DHT22;54976;51.510;7.522;2023-07-31T16:22:29;20.00;99.90
58638;DHT22;54976;51.510;7.522;2023-07-31T16:25:30;20.00;99.90
58638;DHT22;54976;51.510;7.522;2023-07-31T16:28:30;20.00;99.90
58638;DHT22;54976;51.510;7.522;2023-07-31T16:31:31;19.90;99.90
58638;DHT22;54976;51.510;7.522;2023-07-31T16:34:31;19.90;99.90
58638;DHT22;54976;51.510;7.522;2023-07-31T16:37:32;19.90;99.90
58638;DHT22;54976;51.510;7.522;2023-07-31T16:40:33;19.90;99.90
58638;DHT22;54976;51.510;7.522;2023-07-31T16:43:33;19.90;99.90
58638;DHT22;54976;51.510;7.522;2023-07-31T16:46:34;19.80;99.90
58638;DHT22;54976;51.510;7.522;2023-07-31T16:49:34;19.70;99.90
58638;DHT22;54976;51.510;7.522;2023-07-31T16:52:35;19.70;99.90
58638;DHT22;54976;51.510;7.522;2023-07-31T16:55:35;19.70;99.90
58638;DHT22;54976;51.510;7.522;2023-07-31T16:58:36;19.60;99.90
58638;DHT22;54976;51.510;7.522;2023-07-31T17:01:37;19.50;99.90
58638;DHT22;54976;51.510;7.522;2023-07-31T17:04:38;19.50;99.90
58638;DHT22;54976;51.510;7.522;2023-07-31T17:07:38;19.40;99.90
58638;DHT22;54976;51.510;7.522;2023-07-31T17:10:39;19.30;99.90
58638;DHT22;54976;51.510;7.522;2023-07-31T17:13:39;19.20;99.90
58638;DHT22;54976;51.510;7.522;2023-07-31T17:16:40;19.20;99.90
58638;DHT22;54976;51.510;7.522;2023-07-31T17:19:40;19.20;99.90
58638;DHT22;54976;51.510;7.522;2023-07-31T17:22:41;19.20;99.90
58638;DHT22;54976;51.510;7.522;2023-07-31T17:25:44;19.20;99.90
58638;DHT22;54976;51.510;7.522;2023-07-31T17:28:45;19.10;99.90
58638;DHT22;54976;51.510;7.522;2023-07-31T17:31:45;19.00;99.90
58638;DHT22;54976;51.510;7.522;2023-07-31T17:34:46;18.90;99.90
58638;DHT22;54976;51.510;7.522;2023-07-31T17:37:47;18.80;99.90
58638;DHT22;54976;51.510;7.522;2023-07-31T17:40:47;18.70;99.90
58638;DHT22;54976;51.510;7.522;2023-07-31T17:43:48;18.70;99.90
58638;DHT22;54976;51.510;7.522;2023-07-31T17:46:48;18.70;99.90
58638;DHT22;54976;51.510;7.522;2023-07-31T17:49:49;18.60;99.90
58638;DHT22;54976;51.510;7.522;2023-07-31T17:52:50;18.60;99.90
58638;DHT22;54976;51.510;7.522;2023-07-31T17:55:50;18.50;99.90
58638;DHT22;54976;51.510;7.522;2023-07-31T17:58:51;18.60;99.90
58638;DHT22;54976;51.510;7.522;2023-07-31T18:01:51;18.50;99.90
58638;DHT22;54976;51.510;7.522;2023-07-31T18:04:52;18.50;99.90
58638;DHT22;54976;51.510;7.522;2023-07-31T18:07:52;18.50;99.90
58638;DHT22;54976;51.510;7.522;2023-07-31T18:10:53;18.50;99.90
58638;DHT22;54976;51.510;7.522;2023-07-31T18:13:53;18.40;99.90
58638;DHT22;54976;51.510;7.522;2023-07-31T18:16:54;18.30;99.90
58638;DHT22;54976;51.510;7.522;2023-07-31T18:19:54;18.30;99.90
58638;DHT22;54976;51.510;7.522;2023-07-31T18:22:55;18.30;99.90
58638;DHT22;54976;51.510;7.522;2023-07-31T18:25:55;18.20;99.90
58638;DHT22;54976;51.510;7.522;2023-07-31T18:28:56;18.10;99.90
58638;DHT22;54976;51.510;7.522;2023-07-31T18:31:56;18.10;99.90
58638;DHT22;54976;51.510;7.522;2023-07-31T18:34:57;18.00;99.90
58638;DHT22;54976;51.510;7.522;2023-07-31T18:37:57;18.00;99.90
58638;DHT22;54976;51.510;7.522;2023-07-31T18:40:58;17.90;99.90
58638;DHT22;54976;51.510;7.522;2023-07-31T18:43:59;17.90;99.90
58638;DHT22;54976;51.510;7.522;2023-07-31T18:47:01;17.90;99.90
58638;DHT22;54976;51.510;7.522;2023-07-31T18:50:01;17.90;99.90
58638;DHT22;54976;51.510;7.522;2023-07-31T18:53:02;17.90;99.90
58638;DHT22;54976;51.510;7.522;2023-07-31T18:56:03;17.80;99.90
58638;DHT22;54976;51.510;7.522;2023-07-31T18:59:03;17.80;99.90
58638;DHT22;54976;51.510;7.522;2023-07-31T19:02:04;17.80;99.90
58638;DHT22;54976;51.510;7.522;2023-07-31T19:05:05;17.80;99.90
58638;DHT22;54976;51.510;7.522;2023-07-31T19:08:05;17.80;99.90
58638;DHT22;54976;51.510;7.522;2023-07-31T19:11:06;17.80;99.90
58638;DHT22;54976;51.510;7.522;2023-07-31T19:14:06;17.80;99.90
58638;DHT22;54976;51.510;7.522;2023-07-31T19:17:07;17.70;99.90